createdAt,value
2023-05-20T00:01:18.933Z,17.70
2023-05-20T00:03:46.603Z,17.70
2023-05-20T00:06:13.594Z,17.60
2023-05-20T00:08:40.568Z,17.60
2023-05-20T00:11:07.726Z,17.60
2023-05-20T00:13:36.196Z,17.60
2023-05-20T00:16:03.112Z,17.60
2023-05-20T00:18:30.051Z,17.60
2023-05-20T00:20:56.957Z,17.60
2023-05-20T00:23:23.810Z,17.60
2023-05-20T00:25:50.924Z,17.50
2023-05-20T00:28:17.761Z,17.50
2023-05-20T00:30:44.667Z,17.50
2023-05-20T00:33:11.586Z,17.50
2023-05-20T00:35:38.447Z,17.50
2023-05-20T00:38:05.843Z,17.50
2023-05-20T00:40:32.677Z,17.50
2023-05-20T00:42:59.508Z,17.50
2023-05-20T00:45:26.497Z,17.40
2023-05-20T00:47:53.521Z,17.40
2023-05-20T00:50:20.889Z,17.40
2023-05-20T00:52:48.365Z,17.40
2023-05-20T00:55:15.230Z,17.40
2023-05-20T00:57:42.100Z,17.40
2023-05-20T01:00:10.871Z,17.40
2023-05-20T01:02:38.293Z,17.40
2023-05-20T01:05:05.666Z,17.40
2023-05-20T01:07:33.018Z,17.40
2023-05-20T01:10:00.657Z,17.40
2023-05-20T01:12:49.476Z,17.40
2023-05-20T01:15:16.816Z,17.40
2023-05-20T01:17:46.822Z,17.30
2023-05-20T01:20:14.852Z,17.30
2023-05-20T01:22:54.509Z,17.30
2023-05-20T01:25:22.156Z,17.30
2023-05-20T01:27:50.265Z,17.30
2023-05-20T01:30:17.596Z,17.30
2023-05-20T01:32:51.819Z,17.30
2023-05-20T01:35:19.098Z,17.30
2023-05-20T01:37:47.415Z,17.30
2023-05-20T01:40:18.484Z,17.30
2023-05-20T01:42:46.573Z,17.30
2023-05-20T01:45:13.470Z,17.30
2023-05-20T01:47:40.891Z,17.30
2023-05-20T01:50:08.303Z,17.30
2023-05-20T01:52:35.244Z,17.30
2023-05-20T01:55:02.107Z,17.30
2023-05-20T01:57:28.970Z,17.30
2023-05-20T01:59:55.763Z,17.30
2023-05-20T02:02:22.695Z,17.20
2023-05-20T02:04:51.439Z,17.20
2023-05-20T02:07:19.129Z,17.20
2023-05-20T02:09:46.704Z,17.20
2023-05-20T02:12:17.058Z,17.20
2023-05-20T02:14:45.908Z,17.30
2023-05-20T02:17:16.259Z,17.20
2023-05-20T02:19:44.081Z,17.30
2023-05-20T02:22:11.176Z,17.30
2023-05-20T02:24:38.003Z,17.30
2023-05-20T02:27:06.385Z,17.30
2023-05-20T02:29:33.347Z,17.20
2023-05-20T02:32:00.216Z,17.30
2023-05-20T02:34:28.150Z,17.30
2023-05-20T02:36:55.086Z,17.20
2023-05-20T02:39:22.033Z,17.20
2023-05-20T02:41:49.224Z,17.30
2023-05-20T02:44:16.932Z,17.30
2023-05-20T02:46:43.946Z,17.30
2023-05-20T02:49:10.882Z,17.30
2023-05-20T02:51:37.746Z,17.30
2023-05-20T02:54:04.711Z,17.20
2023-05-20T02:56:32.615Z,17.30
2023-05-20T02:59:00.225Z,17.20
2023-05-20T03:01:27.164Z,17.20
2023-05-20T03:03:54.628Z,17.20
2023-05-20T03:06:21.634Z,17.20
2023-05-20T03:08:48.498Z,17.20
2023-05-20T03:11:16.114Z,17.20
2023-05-20T03:13:42.918Z,17.20
2023-05-20T03:16:13.234Z,17.20
2023-05-20T03:18:40.810Z,17.10
2023-05-20T03:21:07.645Z,17.20
2023-05-20T03:23:34.818Z,17.20
2023-05-20T03:26:01.846Z,17.20
2023-05-20T03:28:28.743Z,17.20
2023-05-20T03:30:55.829Z,17.20
2023-05-20T03:33:26.172Z,17.20
2023-05-20T03:35:53.745Z,17.20
2023-05-20T03:38:20.670Z,17.20
2023-05-20T03:40:47.430Z,17.20
2023-05-20T03:43:14.879Z,17.10
2023-05-20T03:45:41.869Z,17.20
2023-05-20T03:48:08.776Z,17.20
2023-05-20T03:50:35.969Z,17.20
2023-05-20T03:53:02.990Z,17.20
2023-05-20T03:55:29.896Z,17.20
2023-05-20T03:57:57.035Z,17.20
2023-05-20T04:00:24.153Z,17.20
2023-05-20T04:02:51.071Z,17.20
2023-05-20T04:05:18.051Z,17.20
2023-05-20T04:07:44.910Z,17.20
2023-05-20T04:10:11.976Z,17.20
2023-05-20T04:12:38.850Z,17.30
2023-05-20T04:15:06.809Z,17.30
2023-05-20T04:17:33.980Z,17.30
2023-05-20T04:20:00.846Z,17.30
2023-05-20T04:22:27.888Z,17.30
2023-05-20T04:24:56.557Z,17.30
2023-05-20T04:27:23.794Z,17.30
2023-05-20T04:29:50.714Z,17.30
2023-05-20T04:32:19.282Z,17.30
2023-05-20T04:34:46.762Z,17.30
2023-05-20T04:37:13.936Z,17.40
2023-05-20T04:39:40.830Z,17.40
2023-05-20T04:42:07.698Z,17.30
2023-05-20T04:44:34.628Z,17.30
2023-05-20T04:47:01.621Z,17.40
2023-05-20T04:49:31.257Z,17.40
2023-05-20T04:51:58.641Z,17.50
2023-05-20T04:54:25.609Z,17.50
2023-05-20T04:56:52.507Z,17.60
2023-05-20T04:59:19.388Z,17.60
2023-05-20T05:01:46.294Z,17.60
2023-05-20T05:04:13.184Z,17.60
2023-05-20T05:06:40.135Z,17.60
2023-05-20T05:09:08.016Z,17.70
2023-05-20T05:11:34.933Z,17.70
2023-05-20T05:14:01.862Z,17.70
2023-05-20T05:16:28.719Z,17.80
2023-05-20T05:18:55.607Z,17.80
2023-05-20T05:21:22.526Z,17.80
2023-05-20T05:23:49.323Z,17.80
2023-05-20T05:26:16.362Z,17.90
2023-05-20T05:28:46.162Z,17.90
2023-05-20T05:31:13.092Z,17.90
2023-05-20T05:33:39.894Z,18.00
2023-05-20T05:36:06.940Z,18.00
2023-05-20T05:38:33.813Z,18.10
2023-05-20T05:41:00.816Z,18.20
2023-05-20T05:43:27.675Z,18.20
2023-05-20T05:45:55.077Z,18.20
2023-05-20T05:48:26.594Z,18.30
2023-05-20T05:50:53.856Z,18.30
2023-05-20T05:53:21.381Z,18.30
2023-05-20T05:55:48.206Z,18.40
2023-05-20T05:58:15.212Z,18.40
2023-05-20T06:00:42.119Z,18.40
2023-05-20T06:03:09.017Z,18.50
2023-05-20T06:05:36.307Z,18.60
2023-05-20T06:08:03.617Z,18.60
2023-05-20T06:10:30.564Z,18.70
2023-05-20T06:12:57.366Z,18.70
2023-05-20T06:15:24.269Z,18.80
2023-05-20T06:17:51.359Z,18.90
2023-05-20T06:20:18.277Z,18.90
2023-05-20T06:22:47.783Z,19.00
2023-05-20T06:25:14.879Z,19.00
2023-05-20T06:27:41.763Z,19.00
2023-05-20T06:30:09.205Z,19.10
2023-05-20T06:32:36.032Z,19.10
2023-05-20T06:35:02.889Z,19.10
2023-05-20T06:37:29.710Z,19.10
2023-05-20T06:39:56.623Z,19.10
2023-05-20T06:42:24.021Z,19.20
2023-05-20T06:44:50.850Z,19.20
2023-05-20T06:47:18.305Z,19.20
2023-05-20T06:49:47.572Z,19.20
2023-05-20T06:52:14.694Z,19.30
2023-05-20T06:54:42.188Z,19.30
2023-05-20T06:57:09.768Z,19.30
2023-05-20T06:59:37.511Z,19.30
2023-05-20T07:02:05.708Z,19.30
2023-05-20T07:04:32.646Z,19.40
2023-05-20T07:06:59.462Z,19.40
2023-05-20T07:09:26.365Z,19.40
2023-05-20T07:11:53.236Z,19.40
2023-05-20T07:14:20.116Z,19.40
2023-05-20T07:16:47.033Z,19.50
2023-05-20T07:19:13.962Z,19.50
2023-05-20T07:21:41.359Z,19.60
2023-05-20T07:24:08.201Z,19.60
2023-05-20T07:26:44.000Z,19.60
2023-05-20T07:32:51.517Z,19.60
2023-05-20T07:39:03.529Z,19.70
2023-05-20T07:41:35.277Z,19.80
2023-05-20T07:44:04.497Z,19.80
2023-05-20T07:46:31.718Z,19.90
2023-05-20T07:48:58.622Z,20.00
2023-05-20T07:51:25.473Z,20.00
2023-05-20T07:53:55.431Z,20.10
2023-05-20T07:56:22.406Z,20.10
2023-05-20T07:58:58.440Z,20.10
2023-05-20T08:01:27.229Z,20.10
2023-05-20T08:03:54.291Z,20.20
2023-05-20T08:06:21.673Z,20.20
2023-05-20T08:08:48.488Z,20.30
2023-05-20T08:11:15.527Z,20.30
2023-05-20T08:13:42.414Z,20.30
2023-05-20T08:16:09.327Z,20.40
2023-05-20T08:18:39.601Z,20.30
2023-05-20T08:21:10.098Z,20.40
2023-05-20T08:23:39.655Z,20.40
2023-05-20T08:26:07.765Z,20.50
2023-05-20T08:28:37.176Z,20.60
2023-05-20T08:31:04.142Z,20.60
2023-05-20T08:33:31.038Z,20.70
2023-05-20T08:35:57.900Z,20.90
2023-05-20T08:38:24.758Z,20.90
2023-05-20T08:40:56.675Z,20.90
2023-05-20T08:43:24.426Z,21.00
2023-05-20T08:45:54.999Z,21.00
2023-05-20T08:48:25.841Z,21.10
2023-05-20T08:50:53.711Z,21.20
2023-05-20T08:53:24.056Z,21.20
2023-05-20T08:56:00.772Z,21.20
2023-05-20T08:58:32.894Z,21.30
2023-05-20T09:01:00.209Z,21.30
2023-05-20T09:03:27.603Z,21.40
2023-05-20T09:06:03.249Z,21.50
2023-05-20T09:08:31.285Z,21.50
2023-05-20T09:10:58.148Z,21.60
2023-05-20T09:13:25.180Z,21.70
2023-05-20T09:15:52.407Z,21.70
2023-05-20T09:18:19.584Z,21.80
2023-05-20T09:20:50.850Z,21.80
2023-05-20T09:23:20.325Z,21.80
2023-05-20T09:25:50.383Z,21.80
2023-05-20T09:28:17.901Z,21.90
2023-05-20T09:30:46.164Z,22.00
2023-05-20T09:33:13.997Z,22.00
2023-05-20T09:35:41.676Z,22.20
2023-05-20T09:38:10.586Z,22.30
2023-05-20T09:40:41.199Z,22.40
2023-05-20T09:43:08.862Z,22.40
2023-05-20T09:45:36.380Z,22.50
2023-05-20T09:48:05.803Z,22.50
2023-05-20T09:50:33.157Z,22.50
2023-05-20T09:53:03.543Z,22.50
2023-05-20T09:55:31.873Z,22.50
2023-05-20T09:58:03.386Z,22.60
2023-05-20T10:00:30.818Z,22.70
2023-05-20T10:02:58.519Z,22.90
2023-05-20T10:05:33.434Z,23.10
2023-05-20T10:08:19.231Z,23.20
2023-05-20T10:11:12.675Z,23.40
2023-05-20T10:13:42.882Z,23.50
2023-05-20T10:16:31.528Z,23.50
2023-05-20T10:19:13.669Z,23.60
2023-05-20T10:21:40.736Z,23.60
2023-05-20T10:24:11.258Z,23.60
2023-05-20T10:26:39.813Z,23.60
2023-05-20T10:29:20.120Z,23.60
2023-05-20T10:31:52.240Z,23.70
2023-05-20T10:34:20.742Z,23.70
2023-05-20T10:37:07.956Z,23.80
2023-05-20T10:39:34.785Z,24.00
2023-05-20T10:42:08.469Z,24.10
2023-05-20T10:44:46.668Z,24.20
2023-05-20T10:49:47.634Z,24.20
2023-05-20T10:52:15.768Z,24.20
2023-05-20T10:55:01.566Z,24.10
2023-05-20T10:57:29.685Z,24.20
2023-05-20T10:59:57.199Z,24.00
2023-05-20T11:02:28.728Z,24.00
2023-05-20T11:04:59.682Z,24.20
2023-05-20T11:07:29.271Z,24.30
2023-05-20T11:09:56.961Z,24.30
2023-05-20T11:12:25.878Z,24.30
2023-05-20T11:14:53.581Z,24.30
2023-05-20T11:17:20.798Z,24.10
2023-05-20T11:19:48.516Z,24.20
2023-05-20T11:22:15.676Z,24.40
2023-05-20T11:24:42.536Z,24.60
2023-05-20T11:27:09.733Z,24.70
2023-05-20T11:29:37.039Z,24.80
2023-05-20T11:32:04.180Z,24.80
2023-05-20T11:34:39.367Z,24.80
2023-05-20T11:37:10.297Z,24.80
2023-05-20T11:39:38.121Z,24.90
2023-05-20T11:42:06.213Z,24.90
2023-05-20T11:44:33.333Z,24.90
2023-05-20T11:47:02.352Z,24.90
2023-05-20T11:49:29.429Z,25.00
2023-05-20T11:51:57.670Z,25.00
2023-05-20T11:54:25.114Z,25.10
2023-05-20T11:56:54.339Z,25.10
2023-05-20T11:59:24.454Z,25.20
2023-05-20T12:01:51.534Z,25.30
2023-05-20T12:04:18.888Z,25.40
2023-05-20T12:06:46.931Z,25.50
2023-05-20T12:09:14.449Z,25.40
2023-05-20T12:11:42.110Z,25.30
2023-05-20T12:14:09.532Z,25.20
2023-05-20T12:16:39.345Z,25.30
2023-05-20T12:19:06.393Z,25.30
2023-05-20T12:21:33.332Z,25.40
2023-05-20T12:24:00.267Z,25.50
2023-05-20T12:26:28.692Z,25.50
2023-05-20T12:28:56.174Z,25.40
2023-05-20T12:31:23.492Z,25.30
2023-05-20T12:33:50.755Z,25.30
2023-05-20T12:36:19.778Z,25.40
2023-05-20T12:38:47.036Z,25.60
2023-05-20T12:41:14.071Z,25.70
2023-05-20T12:43:40.963Z,25.60
2023-05-20T12:46:08.169Z,25.60
2023-05-20T12:48:35.054Z,25.70
2023-05-20T12:51:02.017Z,25.80
2023-05-20T12:53:28.828Z,25.80
2023-05-20T12:55:55.889Z,25.70
2023-05-20T12:58:22.825Z,25.60
2023-05-20T13:00:49.935Z,25.70
2023-05-20T13:03:17.069Z,25.80
2023-05-20T13:05:44.151Z,25.80
2023-05-20T13:08:12.744Z,25.80
2023-05-20T13:10:39.541Z,25.80
2023-05-20T13:13:06.387Z,25.80
2023-05-20T13:15:33.714Z,25.80
2023-05-20T13:18:01.619Z,25.60
2023-05-20T13:20:30.087Z,25.70
2023-05-20T13:22:57.161Z,25.60
2023-05-20T13:25:24.002Z,25.60
2023-05-20T13:27:50.992Z,25.60
2023-05-20T13:30:18.050Z,25.60
2023-05-20T13:32:45.077Z,25.70
2023-05-20T13:35:13.187Z,25.70
2023-05-20T13:37:40.183Z,25.70
2023-05-20T13:40:07.666Z,25.60
2023-05-20T13:42:34.557Z,25.60
2023-05-20T13:45:01.435Z,25.60
2023-05-20T13:47:28.366Z,25.50
2023-05-20T13:49:55.258Z,25.60
2023-05-20T13:52:22.116Z,25.70
2023-05-20T13:54:48.969Z,25.80
2023-05-20T13:57:16.244Z,25.80
2023-05-20T13:59:43.913Z,25.80
2023-05-20T14:02:11.322Z,25.80
2023-05-20T14:04:40.393Z,25.80
2023-05-20T14:07:09.586Z,25.90
2023-05-20T14:09:36.880Z,25.90
2023-05-20T14:12:04.312Z,26.00
2023-05-20T14:14:31.117Z,26.00
2023-05-20T14:16:58.314Z,26.00
2023-05-20T14:19:26.326Z,26.00
2023-05-20T14:21:53.220Z,26.00
2023-05-20T14:24:21.374Z,26.00
2023-05-20T14:26:49.794Z,26.00
2023-05-20T14:29:16.669Z,26.00
2023-05-20T14:31:43.617Z,26.00
2023-05-20T14:34:10.776Z,25.90
2023-05-20T14:36:40.110Z,25.80
2023-05-20T14:39:06.929Z,25.90
2023-05-20T14:41:33.735Z,25.80
2023-05-20T14:44:00.672Z,25.80
2023-05-20T14:46:27.644Z,25.80
2023-05-20T14:48:54.514Z,25.80
2023-05-20T14:51:21.358Z,25.80
2023-05-20T14:53:48.202Z,25.80
2023-05-20T14:56:14.996Z,25.90
2023-05-20T14:58:42.058Z,25.80
2023-05-20T15:01:09.290Z,25.90
2023-05-20T15:03:36.227Z,25.80
2023-05-20T15:06:03.187Z,25.90
2023-05-20T15:08:29.972Z,25.80
2023-05-20T15:10:56.989Z,25.80
2023-05-20T15:13:23.811Z,25.70
2023-05-20T15:15:50.615Z,25.70
2023-05-20T15:18:17.432Z,25.70
2023-05-20T15:20:44.570Z,25.70
2023-05-20T15:23:11.740Z,25.70
2023-05-20T15:25:38.514Z,25.70
2023-05-20T15:28:05.482Z,25.70
2023-05-20T15:30:33.223Z,25.70
2023-05-20T15:33:00.377Z,25.70
2023-05-20T15:35:27.265Z,25.70
2023-05-20T15:37:54.608Z,25.70
2023-05-20T15:40:21.857Z,25.70
2023-05-20T15:42:48.638Z,25.70
2023-05-20T15:45:15.473Z,25.70
2023-05-20T15:47:43.337Z,25.70
2023-05-20T15:50:11.396Z,25.70
2023-05-20T15:52:38.741Z,25.70
2023-05-20T15:55:06.524Z,25.70
2023-05-20T15:57:33.298Z,25.60
2023-05-20T16:00:00.257Z,25.50
2023-05-20T16:02:27.436Z,25.60
2023-05-20T16:04:54.397Z,25.60
2023-05-20T16:07:21.342Z,25.60
2023-05-20T16:09:48.160Z,25.60
2023-05-20T16:12:16.884Z,25.50
2023-05-20T16:14:44.797Z,25.50
2023-05-20T16:17:12.431Z,25.50
2023-05-20T16:19:39.395Z,25.50
2023-05-20T16:22:06.408Z,25.50
2023-05-20T16:24:33.229Z,25.50
2023-05-20T16:27:00.141Z,25.50
2023-05-20T16:29:27.240Z,25.50
2023-05-20T16:31:54.235Z,25.50
2023-05-20T16:34:21.212Z,25.50
2023-05-20T16:36:48.053Z,25.60
2023-05-20T16:39:15.572Z,25.60
2023-05-20T16:41:43.144Z,25.50
2023-05-20T16:44:10.421Z,25.50
2023-05-20T16:46:37.289Z,25.50
2023-05-20T16:49:04.226Z,25.40
2023-05-20T16:51:31.444Z,25.40
2023-05-20T16:53:58.224Z,25.40
2023-05-20T16:56:27.592Z,25.40
2023-05-20T16:58:54.453Z,25.40
2023-05-20T17:01:23.194Z,25.30
2023-05-20T17:03:50.247Z,25.20
2023-05-20T17:06:17.661Z,25.20
2023-05-20T17:08:44.448Z,25.20
2023-05-20T17:11:11.292Z,25.20
2023-05-20T17:13:38.465Z,25.20
2023-05-20T17:16:06.163Z,25.20
2023-05-20T17:18:34.059Z,25.20
2023-05-20T17:21:00.894Z,25.10
2023-05-20T17:23:27.779Z,25.10
2023-05-20T17:25:54.956Z,25.10
2023-05-20T17:28:21.738Z,25.00
2023-05-20T17:30:48.541Z,25.00
2023-05-20T17:33:16.114Z,25.00
2023-05-20T17:35:43.028Z,24.90
2023-05-20T17:38:09.884Z,24.90
2023-05-20T17:40:36.942Z,24.80
2023-05-20T17:43:04.092Z,24.80
2023-05-20T17:45:30.905Z,24.80
2023-05-20T17:47:57.944Z,24.70
2023-05-20T17:50:24.972Z,24.70
2023-05-20T17:52:51.812Z,24.70
2023-05-20T17:55:19.150Z,24.60
2023-05-20T17:57:46.120Z,24.60
2023-05-20T18:00:13.334Z,24.60
2023-05-20T18:02:40.226Z,24.60
2023-05-20T18:05:07.720Z,24.50
2023-05-20T18:07:37.695Z,24.50
2023-05-20T18:10:05.089Z,24.40
2023-05-20T18:12:32.005Z,24.40
2023-05-20T18:14:58.906Z,24.40
2023-05-20T18:17:25.871Z,24.40
2023-05-20T18:19:52.825Z,24.30
2023-05-20T18:22:19.869Z,24.30
2023-05-20T18:24:46.652Z,24.30
2023-05-20T18:27:13.643Z,24.20
2023-05-20T18:29:42.987Z,24.20
2023-05-20T18:32:09.972Z,24.10
2023-05-20T18:34:37.316Z,24.10
2023-05-20T18:37:04.329Z,24.00
2023-05-20T18:39:31.353Z,24.00
2023-05-20T18:41:58.208Z,24.00
2023-05-20T18:44:25.022Z,23.90
2023-05-20T18:46:51.852Z,23.90
2023-05-20T18:49:18.707Z,23.90
2023-05-20T18:51:45.554Z,23.80
2023-05-20T18:54:12.328Z,23.80
2023-05-20T18:56:39.153Z,23.70
2023-05-20T18:59:06.082Z,23.70
2023-05-20T19:01:33.916Z,23.70
2023-05-20T19:04:01.138Z,23.60
2023-05-20T19:06:28.041Z,23.60
2023-05-20T19:08:54.831Z,23.60
2023-05-20T19:11:21.998Z,23.50
2023-05-20T19:13:48.853Z,23.50
2023-05-20T19:16:15.706Z,23.40
2023-05-20T19:18:42.707Z,23.40
2023-05-20T19:21:09.621Z,23.40
2023-05-20T19:23:36.536Z,23.30
2023-05-20T19:26:03.416Z,23.30
2023-05-20T19:28:30.264Z,23.20
2023-05-20T19:30:57.206Z,23.20
2023-05-20T19:33:24.209Z,23.20
2023-05-20T19:35:51.342Z,23.20
2023-05-20T19:38:18.455Z,23.10
2023-05-20T19:40:45.619Z,23.10
2023-05-20T19:43:12.722Z,23.10
2023-05-20T19:45:39.741Z,23.00
2023-05-20T19:48:07.090Z,23.00
2023-05-20T19:50:34.266Z,22.90
2023-05-20T19:53:06.116Z,22.90
2023-05-20T19:55:33.931Z,22.80
2023-05-20T19:58:00.852Z,22.80
2023-05-20T20:00:27.707Z,22.70
2023-05-20T20:02:56.108Z,22.60
2023-05-20T20:05:23.947Z,22.60
2023-05-20T20:07:50.847Z,22.50
2023-05-20T20:10:17.782Z,22.50
2023-05-20T20:12:44.682Z,22.50
2023-05-20T20:15:11.865Z,22.40
2023-05-20T20:17:45.915Z,22.40
2023-05-20T20:20:16.903Z,22.40
2023-05-20T20:22:43.965Z,22.30
2023-05-20T20:25:14.097Z,22.30
2023-05-20T20:27:43.957Z,22.30
2023-05-20T20:30:15.025Z,22.30
2023-05-20T20:32:42.564Z,22.20
2023-05-20T20:35:10.055Z,22.20
2023-05-20T20:37:38.388Z,22.10
2023-05-20T20:40:08.118Z,22.10
2023-05-20T20:42:35.008Z,22.10
2023-05-20T20:45:02.481Z,22.00
2023-05-20T20:47:29.638Z,22.00
2023-05-20T20:49:56.881Z,22.00
2023-05-20T20:52:23.791Z,22.00
2023-05-20T20:54:50.742Z,22.00
2023-05-20T20:57:17.649Z,21.90
2023-05-20T20:59:47.903Z,21.90
2023-05-20T21:02:15.149Z,21.90
2023-05-20T21:04:42.816Z,21.90
2023-05-20T21:07:09.772Z,21.90
2023-05-20T21:09:36.733Z,21.80
2023-05-20T21:12:06.678Z,21.70
2023-05-20T21:14:33.864Z,21.60
2023-05-20T21:17:01.115Z,21.60
2023-05-20T21:19:28.607Z,21.50
2023-05-20T21:21:55.586Z,21.50
2023-05-20T21:24:22.521Z,21.50
2023-05-20T21:26:49.533Z,21.40
2023-05-20T21:29:16.382Z,21.40
2023-05-20T21:31:43.184Z,21.40
2023-05-20T21:34:10.002Z,21.40
2023-05-20T21:36:37.139Z,21.30
2023-05-20T21:39:04.116Z,21.30
2023-05-20T21:41:31.060Z,21.30
2023-05-20T21:43:58.024Z,21.20
2023-05-20T21:46:24.937Z,21.20
2023-05-20T21:48:51.813Z,21.20
2023-05-20T21:51:18.611Z,21.10
2023-05-20T21:53:45.906Z,21.10
2023-05-20T21:56:12.901Z,21.00
2023-05-20T21:58:41.718Z,21.00
2023-05-20T22:01:09.967Z,21.00
2023-05-20T22:03:38.256Z,20.90
2023-05-20T22:06:05.948Z,20.90
2023-05-20T22:08:35.923Z,20.80
2023-05-20T22:11:07.425Z,20.70
2023-05-20T22:13:35.761Z,20.70
2023-05-20T22:16:05.205Z,20.70
2023-05-20T22:18:32.288Z,20.70
2023-05-20T22:20:59.424Z,20.70
2023-05-20T22:23:27.276Z,20.70
2023-05-20T22:25:55.097Z,20.70
2023-05-20T22:28:23.843Z,20.70
2023-05-20T22:30:51.542Z,20.60
2023-05-20T22:33:18.669Z,20.60
2023-05-20T22:35:45.480Z,20.60
2023-05-20T22:38:12.509Z,20.60
2023-05-20T22:40:39.447Z,20.60
2023-05-20T22:43:06.361Z,20.60
2023-05-20T22:45:33.572Z,20.50
2023-05-20T22:48:02.092Z,20.40
2023-05-20T22:50:28.995Z,20.40
2023-05-20T22:52:56.001Z,20.30
2023-05-20T22:55:23.952Z,20.30
2023-05-20T22:57:51.066Z,20.30
2023-05-20T23:00:18.525Z,20.20
2023-05-20T23:02:49.742Z,20.20
2023-05-20T23:05:17.387Z,20.20
2023-05-20T23:07:44.902Z,20.20
2023-05-20T23:10:11.948Z,20.20
2023-05-20T23:12:39.937Z,20.20
2023-05-20T23:15:07.567Z,20.20
2023-05-20T23:17:34.406Z,20.20
2023-05-20T23:20:01.328Z,20.20
2023-05-20T23:22:28.149Z,20.20
2023-05-20T23:24:54.987Z,20.20
2023-05-20T23:27:21.871Z,20.20
2023-05-20T23:29:48.724Z,20.20
2023-05-20T23:32:15.804Z,20.20
2023-05-20T23:34:43.649Z,20.10
2023-05-20T23:37:10.487Z,20.10
2023-05-20T23:39:37.462Z,20.00
2023-05-20T23:42:05.213Z,20.00
2023-05-20T23:44:32.058Z,19.90
2023-05-20T23:46:58.880Z,19.90
2023-05-20T23:49:27.236Z,19.90
2023-05-20T23:51:54.203Z,19.80
2023-05-20T23:54:21.235Z,19.70
2023-05-20T23:56:48.125Z,19.70
2023-05-20T23:59:15.360Z,19.70
